Fjordprinsessen — LJVE — position and weather

sailwx.info

Track history (hours):
 
Tides and Currents Weather Stations Pressure Air Temp Water Temp Dewpoint Dewpoint Depression Visibility Wind Speed Wind Dir Waves Ship Positions

Fjordprinsessen

Last reported at 2016-May-02 12:32 UTC. Time now 2016-May-02 12:35 UTC.
Position N 67°17' E 014°22'.

Length 30 m; draft 2.5 m.

Type: High speed craft. MMSI: 259604000.

Date/timePositionNaut miles runAvg speedWind from/ knotsBaromVisibWave heightAir tempDewpointWater temp
2016-May-02 12:32N 67°17' E 014°22'0 0.0
2016-May-02 11:32N 67°17' E 014°22'0 0.0
2016-May-02 10:32N 67°17' E 014°22'0 0.0
2016-May-02 09:32N 67°17' E 014°22'0 0.0
2016-May-02 08:31N 67°17' E 014°22'1 0.7
2016-May-02 07:33N 67°18' E 014°22'1512.3
2016-May-02 06:20N 67°18' E 013°43'1316.6
2016-May-02 05:33N 67°23' E 014°15'2 1.7
2016-May-02 04:33N 67°24' E 014°11'7 3.0
2016-May-02 02:24N 67°24' E 013°54'0 0.0
2016-May-02 01:24N 67°24' E 013°54'0 0.0
2016-May-01 20:24N 67°24' E 013°54'4 5.3
2016-May-01 19:34N 67°25' E 014°06'10 9.9
2016-May-01 18:32N 67°17' E 014°22'1717.0
2016-May-01 17:33N 67°05' E 013°54'4213.4
2016-May-01 14:27N 66°29' E 012°58'8 0.4
2016-Apr-30 18:27N 66°21' E 012°59'3712.1
2016-Apr-30 15:27N 66°56' E 013°26'1920.3
2016-Apr-30 14:32N 67°07' E 014°03'1212.5
2016-Apr-30 13:33N 67°17' E 014°22'0 0.0
2016-Apr-30 12:30N 67°17' E 014°22'0 0.0
2016-Apr-30 11:33N 67°17' E 014°22'0 0.0
2016-Apr-30 10:33N 67°17' E 014°22'0 0.3
2016-Apr-30 09:33N 67°17' E 014°23'1312.9
2016-Apr-30 08:32N 67°24' E 013°54'1010.1
2016-Apr-30 07:34N 67°17' E 014°11'10 9.8
2016-Apr-30 06:33N 67°08' E 014°02'1111.3
2016-Apr-30 05:34N 67°17' E 014°19'1 1.3
2016-Apr-30 04:31N 67°17' E 014°22'0 0.0
2016-Apr-30 03:31N 67°17' E 014°22'0 0.0
2016-Apr-30 02:31N 67°17' E 014°22'0 0.0
2016-Apr-30 01:31N 67°17' E 014°22'0 0.0
2016-Apr-30 00:31N 67°17' E 014°22'0 0.0
2016-Apr-29 23:31N 67°17' E 014°22'0 0.0
2016-Apr-29 22:31N 67°17' E 014°22'0 0.0
2016-Apr-29 21:31N 67°17' E 014°22'0 0.0
2016-Apr-29 20:31N 67°17' E 014°22'0 0.0
2016-Apr-29 19:31N 67°17' E 014°22'0 0.0
2016-Apr-29 18:31N 67°17' E 014°22'0 0.0
2016-Apr-29 17:31N 67°17' E 014°22'0 0.0
2016-Apr-29 16:31N 67°17' E 014°22'1414.8
2016-Apr-29 15:33N 67°11' E 013°49'6 6.2
2016-Apr-29 14:33N 67°07' E 014°03'1312.9
2016-Apr-29 13:34N 67°17' E 014°24'1413.5
2016-Apr-29 12:32N 67°19' E 013°48'9 9.6
2016-Apr-29 11:33N 67°25' E 014°08'9 9.5
2016-Apr-29 10:33N 67°17' E 014°23'0 0.2
2016-Apr-29 09:32N 67°17' E 014°22'0 0.0
2016-Apr-29 08:31N 67°17' E 014°22'0 0.0
2016-Apr-29 07:31N 67°17' E 014°22'0 0.0
2016-Apr-29 06:31N 67°17' E 014°22'0 0.0
2016-Apr-29 05:31N 67°17' E 014°22'1212.9
2016-Apr-29 04:33N 67°07' E 014°03'1212.3
2016-Apr-29 03:33N 67°17' E 014°22'0 0.0
2016-Apr-29 02:33N 67°17' E 014°22'0 0.0
2016-Apr-29 01:33N 67°17' E 014°22'0 0.0
2016-Apr-29 00:33N 67°17' E 014°22'0 0.0
2016-Apr-28 23:33N 67°17' E 014°22'0 0.0
2016-Apr-28 22:33N 67°17' E 014°22'0 0.0
2016-Apr-28 21:33N 67°17' E 014°22'0 0.0
2016-Apr-28 20:33N 67°17' E 014°22'1010.5
2016-Apr-28 19:33N 67°15' E 013°56'8 8.4
2016-Apr-28 18:34N 67°07' E 014°03'1212.3
2016-Apr-28 17:33N 67°17' E 014°22'0 0.0
2016-Apr-28 16:33N 67°17' E 014°22'5 4.8
2016-Apr-28 15:34N 67°21' E 014°15'5 5.0
2016-Apr-28 14:34N 67°25' E 014°07'10 9.8
2016-Apr-28 13:33N 67°17' E 014°22'1514.7
2016-Apr-28 12:34N 67°19' E 013°45'1212.4
2016-Apr-28 11:34N 67°23' E 014°15'7 6.8
2016-Apr-28 10:33N 67°17' E 014°23'9 8.6
2016-Apr-28 09:33N 67°17' E 014°00'8 7.7
2016-Apr-28 08:34N 67°09' E 014°02'1111.2
2016-Apr-28 07:34N 67°17' E 014°22'0 0.0
2016-Apr-28 06:33N 67°17' E 014°22'0 0.0
2016-Apr-28 05:33N 67°17' E 014°22'1212.3
2016-Apr-28 04:34N 67°07' E 014°03'1211.9
2016-Apr-28 03:32N 67°17' E 014°22'0 0.0
2016-Apr-28 02:32N 67°17' E 014°22'0 0.0
2016-Apr-28 01:31N 67°17' E 014°22'0 0.0
2016-Apr-28 00:31N 67°17' E 014°22'0 0.0
2016-Apr-27 23:31N 67°17' E 014°22'0 0.0
2016-Apr-27 22:31N 67°17' E 014°22'0 0.0
2016-Apr-27 21:31N 67°17' E 014°22'0 0.0
2016-Apr-27 20:31N 67°17' E 014°22'0 0.0
2016-Apr-27 19:31N 67°17' E 014°22'1213.0
2016-Apr-27 18:34N 67°08' E 014°02'1212.3
2016-Apr-27 17:33N 67°17' E 014°22'0 0.0
2016-Apr-27 16:33N 67°17' E 014°22'1313.2
2016-Apr-27 15:33N 67°12' E 013°51'6 6.3
2016-Apr-27 14:33N 67°08' E 014°02'1312.8
2016-Apr-27 13:32N 67°17' E 014°24'1 0.7
2016-Apr-27 12:32N 67°17' E 014°22'0 0.0
2016-Apr-27 11:32N 67°17' E 014°22'0 0.0
2016-Apr-27 10:32N 67°17' E 014°22'0 0.0
2016-Apr-27 09:32N 67°17' E 014°22'0 0.0
2016-Apr-27 08:33N 67°17' E 014°22'0 0.0
2016-Apr-27 07:33N 67°17' E 014°22'0 0.0
2016-Apr-27 06:33N 67°17' E 014°22'0 0.0
2016-Apr-27 05:33N 67°17' E 014°22'1212.4
2016-Apr-27 04:33N 67°08' E 014°02'1212.4
2016-Apr-27 03:33N 67°17' E 014°22'0 0.0
2016-Apr-27 02:32N 67°17' E 014°22'0 0.0
2016-Apr-27 01:32N 67°17' E 014°22'0 0.0
2016-Apr-27 00:32N 67°17' E 014°22'0 0.0
2016-Apr-26 23:32N 67°17' E 014°22'0 0.0
2016-Apr-26 22:32N 67°17' E 014°22'0 0.0
2016-Apr-26 21:32N 67°17' E 014°22'0 0.0
2016-Apr-26 20:32N 67°17' E 014°22'0 0.0
2016-Apr-26 19:32N 67°17' E 014°22'0 0.0
2016-Apr-26 18:32N 67°17' E 014°22'0 0.0
2016-Apr-26 17:32N 67°17' E 014°22'0 0.0
2016-Apr-26 16:34N 67°17' E 014°22'1515.1
2016-Apr-26 15:33N 67°18' E 013°43'1312.7
2016-Apr-26 14:34N 67°24' E 014°13'8 7.6
2016-Apr-26 13:33N 67°17' E 014°22'0 0.0
2016-Apr-26 12:34N 67°17' E 014°22'0 0.0
2016-Apr-26 11:34N 67°17' E 014°22'0 0.0
2016-Apr-26 10:33N 67°17' E 014°22'0 0.0
2016-Apr-26 09:34N 67°17' E 014°22'0 0.0
2016-Apr-26 08:34N 67°17' E 014°22'3 3.2
2016-Apr-26 07:33N 67°20' E 014°18'1211.8
2016-Apr-26 06:33N 67°20' E 013°47'1111.0
2016-Apr-26 05:33N 67°23' E 014°15'1616.5
2016-Apr-26 04:33N 67°08' E 014°02'1212.3
2016-Apr-26 03:33N 67°17' E 014°22'0 0.0
2016-Apr-26 02:33N 67°17' E 014°22'0 0.0
2016-Apr-26 01:33N 67°17' E 014°22'0 0.0
2016-Apr-26 00:33N 67°17' E 014°22'0 0.0
2016-Apr-25 23:32N 67°17' E 014°22'0 0.0
2016-Apr-25 22:32N 67°17' E 014°22'0 0.0
2016-Apr-25 21:32N 67°17' E 014°22'0 0.0
2016-Apr-25 20:32N 67°17' E 014°22'0 0.0
2016-Apr-25 19:32N 67°17' E 014°22'0 0.0
2016-Apr-25 18:32N 67°17' E 014°22'0 0.0
2016-Apr-25 17:32N 67°17' E 014°22'0 0.0
2016-Apr-25 16:33N 67°17' E 014°22'1515.1
2016-Apr-25 15:33N 67°18' E 013°43'1313.0
2016-Apr-25 14:34N 67°24' E 014°14'7 7.2
2016-Apr-25 13:33N 67°17' E 014°22'0 0.0
2016-Apr-25 12:33N 67°17' E 014°22'0 0.0
2016-Apr-25 11:33N 67°17' E 014°22'0 0.0
2016-Apr-25 10:33N 67°17' E 014°22'0 0.0
2016-Apr-25 09:33N 67°17' E 014°22'0 0.0
2016-Apr-25 08:33N 67°17' E 014°22'0 0.0
2016-Apr-25 07:33N 67°17' E 014°22'1313.1
2016-Apr-25 06:33N 67°24' E 013°54'8 8.0
2016-Apr-25 05:34N 67°23' E 014°15'1 0.8
2016-Apr-25 04:34N 67°24' E 014°13'7 7.2
2016-Apr-25 03:33N 67°24' E 013°54'0 0.0
2016-Apr-25 02:30N 67°24' E 013°54'0 0.0
2016-Apr-25 01:18N 67°24' E 013°54'0 0.0
2016-Apr-25 00:30N 67°24' E 013°54'0 0.0
2016-Apr-24 23:30N 67°24' E 013°54'0 0.0
2016-Apr-24 21:21N 67°24' E 013°54'0 0.0
2016-Apr-24 20:24N 67°24' E 013°54'1 1.3
2016-Apr-24 19:33N 67°25' E 013°57'1312.7
2016-Apr-24 18:33N 67°17' E 014°22'1313.0
2016-Apr-24 17:34N 67°08' E 013°58'4514.5
2016-Apr-24 14:25N 66°29' E 012°58'1718.9
2016-Apr-24 13:30N 66°12' E 013°00'9 0.5
2016-Apr-23 18:33N 66°20' E 012°60'2612.8
2016-Apr-23 16:31N 66°46' E 013°14'1211.9
2016-Apr-23 15:33N 66°56' E 013°28'1817.9
2016-Apr-23 14:33N 67°07' E 014°03'1212.3
2016-Apr-23 13:33N 67°17' E 014°22'0 0.0
2016-Apr-23 12:33N 67°17' E 014°22'0 0.0
2016-Apr-23 11:33N 67°17' E 014°22'0 0.0
2016-Apr-23 10:33N 67°17' E 014°22'0 0.0
2016-Apr-23 09:34N 67°17' E 014°22'1411.5
2016-Apr-23 08:22N 67°22' E 013°49'1012.7
2016-Apr-23 07:34N 67°17' E 014°12'1010.5
2016-Apr-23 06:34N 67°08' E 013°59'1211.7
2016-Apr-23 05:33N 67°17' E 014°18'2 1.7
2016-Apr-23 04:32N 67°17' E 014°22'0 0.0
2016-Apr-23 03:32N 67°17' E 014°22'0 0.0
2016-Apr-23 02:32N 67°17' E 014°22'0 0.0
2016-Apr-23 01:32N 67°17' E 014°22'0 0.0
2016-Apr-23 00:32N 67°17' E 014°22'0 0.0
2016-Apr-22 23:32N 67°17' E 014°22'0 0.0
2016-Apr-22 22:32N 67°17' E 014°22'0 0.0
2016-Apr-22 21:31N 67°17' E 014°22'0 0.0
2016-Apr-22 20:31N 67°17' E 014°22'0 0.0
2016-Apr-22 19:31N 67°17' E 014°22'0 0.0
2016-Apr-22 18:31N 67°17' E 014°22'0 0.0
2016-Apr-22 17:31N 67°17' E 014°22'1 0.6
2016-Apr-22 16:33N 67°17' E 014°24'1515.3
2016-Apr-22 15:34N 67°11' E 013°48'6 6.4
2016-Apr-22 14:34N 67°07' E 014°03'1212.3
2016-Apr-22 13:33N 67°17' E 014°22'1111.3
2016-Apr-22 12:33N 67°20' E 013°54'  
Track history (hours):
 
Tides and Currents Weather Stations Pressure Air Temp Water Temp Dewpoint Dewpoint Depression Visibility Wind Speed Wind Dir Waves Ship Positions

Fjordprinsessen

Last reported at 2016-May-02 12:32 UTC. Time now 2016-May-02 12:35 UTC.
Position N 67°17' E 014°22'.

Length 30 m; draft 2.5 m.

Type: High speed craft. MMSI: 259604000.

Date/timePositionNaut miles runAvg speedWind from/ knotsBaromVisibWave heightAir tempDewpointWater temp
2016-May-02 12:32N 67°17' E 014°22'0 0.0
2016-May-02 11:32N 67°17' E 014°22'0 0.0
2016-May-02 10:32N 67°17' E 014°22'0 0.0
2016-May-02 09:32N 67°17' E 014°22'0 0.0
2016-May-02 08:31N 67°17' E 014°22'1 0.7
2016-May-02 07:33N 67°18' E 014°22'1512.3
2016-May-02 06:20N 67°18' E 013°43'1316.6
2016-May-02 05:33N 67°23' E 014°15'2 1.7
2016-May-02 04:33N 67°24' E 014°11'7 3.0
2016-May-02 02:24N 67°24' E 013°54'0 0.0
2016-May-02 01:24N 67°24' E 013°54'0 0.0
2016-May-01 20:24N 67°24' E 013°54'4 5.3
2016-May-01 19:34N 67°25' E 014°06'10 9.9
2016-May-01 18:32N 67°17' E 014°22'1717.0
2016-May-01 17:33N 67°05' E 013°54'4213.4
2016-May-01 14:27N 66°29' E 012°58'8 0.4
2016-Apr-30 18:27N 66°21' E 012°59'3712.1
2016-Apr-30 15:27N 66°56' E 013°26'1920.3
2016-Apr-30 14:32N 67°07' E 014°03'1212.5
2016-Apr-30 13:33N 67°17' E 014°22'0 0.0
2016-Apr-30 12:30N 67°17' E 014°22'0 0.0
2016-Apr-30 11:33N 67°17' E 014°22'0 0.0
2016-Apr-30 10:33N 67°17' E 014°22'0 0.3
2016-Apr-30 09:33N 67°17' E 014°23'1312.9
2016-Apr-30 08:32N 67°24' E 013°54'1010.1
2016-Apr-30 07:34N 67°17' E 014°11'10 9.8
2016-Apr-30 06:33N 67°08' E 014°02'1111.3
2016-Apr-30 05:34N 67°17' E 014°19'1 1.3
2016-Apr-30 04:31N 67°17' E 014°22'0 0.0
2016-Apr-30 03:31N 67°17' E 014°22'0 0.0
2016-Apr-30 02:31N 67°17' E 014°22'0 0.0
2016-Apr-30 01:31N 67°17' E 014°22'0 0.0
2016-Apr-30 00:31N 67°17' E 014°22'0 0.0
2016-Apr-29 23:31N 67°17' E 014°22'0 0.0
2016-Apr-29 22:31N 67°17' E 014°22'0 0.0
2016-Apr-29 21:31N 67°17' E 014°22'0 0.0
2016-Apr-29 20:31N 67°17' E 014°22'0 0.0
2016-Apr-29 19:31N 67°17' E 014°22'0 0.0
2016-Apr-29 18:31N 67°17' E 014°22'0 0.0
2016-Apr-29 17:31N 67°17' E 014°22'0 0.0
2016-Apr-29 16:31N 67°17' E 014°22'1414.8
2016-Apr-29 15:33N 67°11' E 013°49'6 6.2
2016-Apr-29 14:33N 67°07' E 014°03'1312.9
2016-Apr-29 13:34N 67°17' E 014°24'1413.5
2016-Apr-29 12:32N 67°19' E 013°48'9 9.6
2016-Apr-29 11:33N 67°25' E 014°08'9 9.5
2016-Apr-29 10:33N 67°17' E 014°23'0 0.2
2016-Apr-29 09:32N 67°17' E 014°22'0 0.0
2016-Apr-29 08:31N 67°17' E 014°22'0 0.0
2016-Apr-29 07:31N 67°17' E 014°22'0 0.0
2016-Apr-29 06:31N 67°17' E 014°22'0 0.0
2016-Apr-29 05:31N 67°17' E 014°22'1212.9
2016-Apr-29 04:33N 67°07' E 014°03'1212.3
2016-Apr-29 03:33N 67°17' E 014°22'0 0.0
2016-Apr-29 02:33N 67°17' E 014°22'0 0.0
2016-Apr-29 01:33N 67°17' E 014°22'0 0.0
2016-Apr-29 00:33N 67°17' E 014°22'0 0.0
2016-Apr-28 23:33N 67°17' E 014°22'0 0.0
2016-Apr-28 22:33N 67°17' E 014°22'0 0.0
2016-Apr-28 21:33N 67°17' E 014°22'0 0.0
2016-Apr-28 20:33N 67°17' E 014°22'1010.5
2016-Apr-28 19:33N 67°15' E 013°56'8 8.4
2016-Apr-28 18:34N 67°07' E 014°03'1212.3
2016-Apr-28 17:33N 67°17' E 014°22'0 0.0
2016-Apr-28 16:33N 67°17' E 014°22'5 4.8
2016-Apr-28 15:34N 67°21' E 014°15'5 5.0
2016-Apr-28 14:34N 67°25' E 014°07'10 9.8
2016-Apr-28 13:33N 67°17' E 014°22'1514.7
2016-Apr-28 12:34N 67°19' E 013°45'1212.4
2016-Apr-28 11:34N 67°23' E 014°15'7 6.8
2016-Apr-28 10:33N 67°17' E 014°23'9 8.6
2016-Apr-28 09:33N 67°17' E 014°00'8 7.7
2016-Apr-28 08:34N 67°09' E 014°02'1111.2
2016-Apr-28 07:34N 67°17' E 014°22'0 0.0
2016-Apr-28 06:33N 67°17' E 014°22'0 0.0
2016-Apr-28 05:33N 67°17' E 014°22'1212.3
2016-Apr-28 04:34N 67°07' E 014°03'1211.9
2016-Apr-28 03:32N 67°17' E 014°22'0 0.0
2016-Apr-28 02:32N 67°17' E 014°22'0 0.0
2016-Apr-28 01:31N 67°17' E 014°22'0 0.0
2016-Apr-28 00:31N 67°17' E 014°22'0 0.0
2016-Apr-27 23:31N 67°17' E 014°22'0 0.0
2016-Apr-27 22:31N 67°17' E 014°22'0 0.0
2016-Apr-27 21:31N 67°17' E 014°22'0 0.0
2016-Apr-27 20:31N 67°17' E 014°22'0 0.0
2016-Apr-27 19:31N 67°17' E 014°22'1213.0
2016-Apr-27 18:34N 67°08' E 014°02'1212.3
2016-Apr-27 17:33N 67°17' E 014°22'0 0.0
2016-Apr-27 16:33N 67°17' E 014°22'1313.2
2016-Apr-27 15:33N 67°12' E 013°51'6 6.3
2016-Apr-27 14:33N 67°08' E 014°02'1312.8
2016-Apr-27 13:32N 67°17' E 014°24'1 0.7
2016-Apr-27 12:32N 67°17' E 014°22'0 0.0
2016-Apr-27 11:32N 67°17' E 014°22'0 0.0
2016-Apr-27 10:32N 67°17' E 014°22'0 0.0
2016-Apr-27 09:32N 67°17' E 014°22'0 0.0
2016-Apr-27 08:33N 67°17' E 014°22'0 0.0
2016-Apr-27 07:33N 67°17' E 014°22'0 0.0
2016-Apr-27 06:33N 67°17' E 014°22'0 0.0
2016-Apr-27 05:33N 67°17' E 014°22'1212.4
2016-Apr-27 04:33N 67°08' E 014°02'1212.4
2016-Apr-27 03:33N 67°17' E 014°22'0 0.0
2016-Apr-27 02:32N 67°17' E 014°22'0 0.0
2016-Apr-27 01:32N 67°17' E 014°22'0 0.0
2016-Apr-27 00:32N 67°17' E 014°22'0 0.0
2016-Apr-26 23:32N 67°17' E 014°22'0 0.0
2016-Apr-26 22:32N 67°17' E 014°22'0 0.0
2016-Apr-26 21:32N 67°17' E 014°22'0 0.0
2016-Apr-26 20:32N 67°17' E 014°22'0 0.0
2016-Apr-26 19:32N 67°17' E 014°22'0 0.0
2016-Apr-26 18:32N 67°17' E 014°22'0 0.0
2016-Apr-26 17:32N 67°17' E 014°22'0 0.0
2016-Apr-26 16:34N 67°17' E 014°22'1515.1
2016-Apr-26 15:33N 67°18' E 013°43'1312.7
2016-Apr-26 14:34N 67°24' E 014°13'8 7.6
2016-Apr-26 13:33N 67°17' E 014°22'0 0.0
2016-Apr-26 12:34N 67°17' E 014°22'0 0.0
2016-Apr-26 11:34N 67°17' E 014°22'0 0.0
2016-Apr-26 10:33N 67°17' E 014°22'0 0.0
2016-Apr-26 09:34N 67°17' E 014°22'0 0.0
2016-Apr-26 08:34N 67°17' E 014°22'3 3.2
2016-Apr-26 07:33N 67°20' E 014°18'1211.8
2016-Apr-26 06:33N 67°20' E 013°47'1111.0
2016-Apr-26 05:33N 67°23' E 014°15'1616.5
2016-Apr-26 04:33N 67°08' E 014°02'1212.3
2016-Apr-26 03:33N 67°17' E 014°22'0 0.0
2016-Apr-26 02:33N 67°17' E 014°22'0 0.0
2016-Apr-26 01:33N 67°17' E 014°22'0 0.0
2016-Apr-26 00:33N 67°17' E 014°22'0 0.0
2016-Apr-25 23:32N 67°17' E 014°22'0 0.0
2016-Apr-25 22:32N 67°17' E 014°22'0 0.0
2016-Apr-25 21:32N 67°17' E 014°22'0 0.0
2016-Apr-25 20:32N 67°17' E 014°22'0 0.0
2016-Apr-25 19:32N 67°17' E 014°22'0 0.0
2016-Apr-25 18:32N 67°17' E 014°22'0 0.0
2016-Apr-25 17:32N 67°17' E 014°22'0 0.0
2016-Apr-25 16:33N 67°17' E 014°22'1515.1
2016-Apr-25 15:33N 67°18' E 013°43'1313.0
2016-Apr-25 14:34N 67°24' E 014°14'7 7.2
2016-Apr-25 13:33N 67°17' E 014°22'0 0.0
2016-Apr-25 12:33N 67°17' E 014°22'0 0.0
2016-Apr-25 11:33N 67°17' E 014°22'0 0.0
2016-Apr-25 10:33N 67°17' E 014°22'0 0.0
2016-Apr-25 09:33N 67°17' E 014°22'0 0.0
2016-Apr-25 08:33N 67°17' E 014°22'0 0.0
2016-Apr-25 07:33N 67°17' E 014°22'1313.1
2016-Apr-25 06:33N 67°24' E 013°54'8 8.0
2016-Apr-25 05:34N 67°23' E 014°15'1 0.8
2016-Apr-25 04:34N 67°24' E 014°13'7 7.2
2016-Apr-25 03:33N 67°24' E 013°54'0 0.0
2016-Apr-25 02:30N 67°24' E 013°54'0 0.0
2016-Apr-25 01:18N 67°24' E 013°54'0 0.0
2016-Apr-25 00:30N 67°24' E 013°54'0 0.0
2016-Apr-24 23:30N 67°24' E 013°54'0 0.0
2016-Apr-24 21:21N 67°24' E 013°54'0 0.0
2016-Apr-24 20:24N 67°24' E 013°54'1 1.3
2016-Apr-24 19:33N 67°25' E 013°57'1312.7
2016-Apr-24 18:33N 67°17' E 014°22'1313.0
2016-Apr-24 17:34N 67°08' E 013°58'4514.5
2016-Apr-24 14:25N 66°29' E 012°58'1718.9
2016-Apr-24 13:30N 66°12' E 013°00'9 0.5
2016-Apr-23 18:33N 66°20' E 012°60'2612.8
2016-Apr-23 16:31N 66°46' E 013°14'1211.9
2016-Apr-23 15:33N 66°56' E 013°28'1817.9
2016-Apr-23 14:33N 67°07' E 014°03'1212.3
2016-Apr-23 13:33N 67°17' E 014°22'0 0.0
2016-Apr-23 12:33N 67°17' E 014°22'0 0.0
2016-Apr-23 11:33N 67°17' E 014°22'0 0.0
2016-Apr-23 10:33N 67°17' E 014°22'0 0.0
2016-Apr-23 09:34N 67°17' E 014°22'1411.5
2016-Apr-23 08:22N 67°22' E 013°49'1012.7
2016-Apr-23 07:34N 67°17' E 014°12'1010.5
2016-Apr-23 06:34N 67°08' E 013°59'1211.7
2016-Apr-23 05:33N 67°17' E 014°18'2 1.7
2016-Apr-23 04:32N 67°17' E 014°22'0 0.0
2016-Apr-23 03:32N 67°17' E 014°22'0 0.0
2016-Apr-23 02:32N 67°17' E 014°22'0 0.0
2016-Apr-23 01:32N 67°17' E 014°22'0 0.0
2016-Apr-23 00:32N 67°17' E 014°22'0 0.0
2016-Apr-22 23:32N 67°17' E 014°22'0 0.0
2016-Apr-22 22:32N 67°17' E 014°22'0 0.0
2016-Apr-22 21:31N 67°17' E 014°22'0 0.0
2016-Apr-22 20:31N 67°17' E 014°22'0 0.0
2016-Apr-22 19:31N 67°17' E 014°22'0 0.0
2016-Apr-22 18:31N 67°17' E 014°22'0 0.0
2016-Apr-22 17:31N 67°17' E 014°22'1 0.6
2016-Apr-22 16:33N 67°17' E 014°24'1515.3
2016-Apr-22 15:34N 67°11' E 013°48'6 6.4
2016-Apr-22 14:34N 67°07' E 014°03'1212.3
2016-Apr-22 13:33N 67°17' E 014°22'1111.3
2016-Apr-22 12:33N 67°20' E 013°54'  

Dump ship's entire track history